Time;durP1;ratioP1;P1;durP2;ratioP2;P2;SDS_P1;SDS_P2;PMS_P1;PMS_P2;Temp;Humidity;BMP_temperature;BMP_pressure;BME280_temperature;BME280_humidity;BME280_pressure;Samples;Min_cycle;Max_cycle;Signal;HPM_P1;HPM_P2
2022/11/27 00:01:20;;;;;;;11.60;6.67;;;7.00;99.90;;;;;;4839534;29;20564;-56
2022/11/27 00:03:49;;;;;;;15.33;6.63;;;7.10;99.90;;;;;;4841361;29;20644;-54
2022/11/27 00:06:20;;;;;;;16.63;6.80;;;7.10;99.90;;;;;;4838922;29;20245;-56
2022/11/27 00:08:50;;;;;;;15.53;7.20;;;7.10;99.90;;;;;;4838962;29;20212;-56
2022/11/27 00:11:21;;;;;;;11.33;6.27;;;7.20;99.90;;;;;;4839467;29;20215;-56
2022/11/27 00:13:50;;;;;;;16.23;6.23;;;7.20;99.90;;;;;;4840848;29;20228;-55
2022/11/27 00:16:20;;;;;;;15.17;6.13;;;7.20;99.90;;;;;;4840724;29;20204;-56
2022/11/27 00:18:49;;;;;;;14.97;6.43;;;7.20;99.90;;;;;;4839666;29;20247;-56
2022/11/27 00:21:22;;;;;;;11.20;5.80;;;7.20;99.90;;;;;;4838929;29;20209;-56
2022/11/27 00:23:53;;;;;;;16.10;5.93;;;7.20;99.90;;;;;;4840078;29;20211;-55
2022/11/27 00:26:22;;;;;;;11.10;6.17;;;7.20;99.90;;;;;;4839443;29;20200;-56
2022/11/27 00:28:51;;;;;;;13.93;6.27;;;7.20;99.90;;;;;;4839755;29;20239;-56
2022/11/27 00:31:21;;;;;;;10.70;6.20;;;7.20;99.90;;;;;;4839704;29;20200;-56
2022/11/27 00:33:49;;;;;;;12.47;6.20;;;7.20;99.90;;;;;;4835165;29;20223;-56
2022/11/27 00:36:17;;;;;;;14.00;5.40;;;7.20;99.90;;;;;;4834466;29;20197;-56
2022/11/27 00:38:46;;;;;;;9.20;5.47;;;7.20;99.90;;;;;;4839998;29;20223;-56
2022/11/27 00:41:17;;;;;;;12.33;5.73;;;7.30;99.90;;;;;;4842026;29;20195;-55
2022/11/27 00:43:46;;;;;;;11.97;6.23;;;7.30;99.90;;;;;;4843424;29;20208;-56
2022/11/27 00:46:15;;;;;;;9.33;5.20;;;7.30;99.90;;;;;;4844465;29;20207;-57
2022/11/27 00:48:45;;;;;;;11.57;5.73;;;7.30;99.90;;;;;;4855986;29;20670;-56
2022/11/27 00:51:19;;;;;;;15.27;6.00;;;7.30;99.90;;;;;;4842570;29;20212;-55
2022/11/27 00:53:48;;;;;;;12.07;5.30;;;7.30;99.90;;;;;;4839809;29;20195;-57
2022/11/27 00:56:20;;;;;;;12.33;5.47;;;7.30;99.90;;;;;;4841136;29;20706;-57
2022/11/27 00:58:49;;;;;;;12.63;5.87;;;7.30;99.90;;;;;;4841322;29;20216;-54
2022/11/27 01:01:20;;;;;;;15.70;5.77;;;7.30;99.90;;;;;;4843628;29;20212;-56
2022/11/27 01:03:49;;;;;;;14.43;5.93;;;7.30;99.90;;;;;;4848765;29;20204;-56
2022/11/27 01:06:19;;;;;;;17.27;5.63;;;7.40;99.90;;;;;;4843015;29;20252;-56
2022/11/27 01:08:48;;;;;;;9.93;4.93;;;7.40;99.90;;;;;;4845086;29;20206;-56
2022/11/27 01:11:19;;;;;;;11.73;5.13;;;7.40;99.90;;;;;;4839712;29;20694;-56
2022/11/27 01:13:48;;;;;;;12.90;6.03;;;7.40;99.90;;;;;;4843490;29;20715;-56
2022/11/27 01:16:19;;;;;;;13.77;5.70;;;7.40;99.90;;;;;;4842071;29;20197;-56
2022/11/27 01:18:49;;;;;;;10.77;4.97;;;7.30;99.90;;;;;;4841880;29;20245;-54
2022/11/27 01:21:20;;;;;;;15.33;5.10;;;7.40;99.90;;;;;;4835694;29;20214;-56
2022/11/27 01:23:49;;;;;;;12.90;5.47;;;7.40;99.90;;;;;;4844122;29;20533;-56
2022/11/27 01:26:19;;;;;;;13.13;5.03;;;7.40;99.90;;;;;;4843390;29;20215;-57
2022/11/27 01:28:48;;;;;;;13.17;5.30;;;7.40;99.90;;;;;;4844304;29;20200;-57
2022/11/27 01:31:18;;;;;;;8.13;4.70;;;7.40;99.90;;;;;;4844377;29;20196;-56
2022/11/27 01:33:47;;;;;;;13.73;5.33;;;7.30;99.90;;;;;;4843054;29;20628;-56
2022/11/27 01:36:16;;;;;;;14.80;5.70;;;7.40;99.90;;;;;;4842129;29;20204;-56
2022/11/27 01:38:44;;;;;;;14.17;5.00;;;7.40;99.90;;;;;;4842917;29;20561;-55
2022/11/27 01:41:15;;;;;;;11.77;4.30;;;7.40;99.90;;;;;;4843346;29;20663;-55
2022/11/27 01:43:47;;;;;;;9.40;4.20;;;7.40;99.90;;;;;;4844359;29;20204;-56
2022/11/27 01:46:31;;;;;;;14.43;4.60;;;7.50;99.90;;;;;;4838759;29;20200;-55
2022/11/27 01:49:05;;;;;;;12.43;4.40;;;7.40;99.90;;;;;;4841472;29;20656;-56
2022/11/27 01:51:34;;;;;;;18.60;4.50;;;7.40;99.90;;;;;;4837755;29;20860;-56
2022/11/27 01:54:03;;;;;;;17.30;5.03;;;7.40;99.90;;;;;;4836666;29;20204;-56
2022/11/27 01:56:31;;;;;;;16.53;4.30;;;7.40;99.90;;;;;;4843711;29;20244;-54
2022/11/27 01:59:02;;;;;;;10.10;3.70;;;7.50;99.90;;;;;;4839684;29;20979;-56
2022/11/27 02:01:31;;;;;;;10.53;3.67;;;7.40;99.90;;;;;;4841169;29;20204;-56
2022/11/27 02:04:00;;;;;;;8.80;3.67;;;7.40;99.90;;;;;;4838811;29;20216;-56
2022/11/27 02:06:29;;;;;;;13.17;3.60;;;7.40;99.90;;;;;;4841916;29;20195;-56
2022/11/27 02:09:00;;;;;;;10.10;4.10;;;7.40;99.90;;;;;;4838431;29;20213;-55
2022/11/27 02:11:33;;;;;;;10.97;3.63;;;7.40;99.90;;;;;;4837500;29;20221;-56
2022/11/27 02:14:23;;;;;;;11.03;4.13;;;7.40;99.90;;;;;;4838902;29;20263;-56
2022/11/27 02:17:02;;;;;;;6.87;3.27;;;7.40;99.90;;;;;;4834506;29;20203;-56
2022/11/27 02:19:48;;;;;;;6.60;3.40;;;7.40;99.90;;;;;;4837727;29;20722;-56
2022/11/27 02:22:26;;;;;;;12.70;3.63;;;7.40;99.90;;;;;;4840729;29;20217;-56
2022/11/27 02:25:02;;;;;;;11.13;3.30;;;7.40;99.90;;;;;;4843536;29;20237;-56
2022/11/27 02:28:05;;;;;;;8.30;3.07;;;7.40;99.90;;;;;;4831252;29;20222;-57
2022/11/27 02:30:40;;;;;;;9.20;3.67;;;7.40;99.90;;;;;;4839315;29;20199;-56
2022/11/27 02:33:11;;;;;;;12.40;3.80;;;7.40;99.90;;;;;;4842335;29;20555;-57
2022/11/27 02:35:46;;;;;;;10.20;3.83;;;7.40;99.90;;;;;;4840540;29;20204;-56
2022/11/27 02:38:19;;;;;;;6.97;3.17;;;7.50;99.90;;;;;;4840261;29;20282;-55
2022/11/27 02:40:53;;;;;;;8.27;3.27;;;7.50;99.90;;;;;;4837252;29;20200;-56
2022/11/27 02:43:26;;;;;;;13.37;3.20;;;7.40;99.90;;;;;;4839842;29;20207;-56
2022/11/27 02:45:58;;;;;;;10.50;3.67;;;7.40;99.90;;;;;;4840301;29;20237;-56
2022/11/27 02:48:32;;;;;;;8.17;3.20;;;7.40;99.90;;;;;;4840623;29;20208;-57
2022/11/27 02:51:05;;;;;;;12.70;3.50;;;7.50;99.90;;;;;;4838711;29;20203;-56
2022/11/27 02:53:41;;;;;;;12.37;3.07;;;7.50;99.90;;;;;;4842319;29;20207;-56
2022/11/27 02:56:15;;;;;;;10.33;3.17;;;7.50;99.90;;;;;;4837065;29;20239;-56
2022/11/27 02:58:46;;;;;;;15.73;3.27;;;7.50;99.90;;;;;;4826148;29;20219;-56
2022/11/27 03:01:20;;;;;;;9.93;3.67;;;7.50;99.90;;;;;;4841962;29;20204;-56
2022/11/27 03:03:52;;;;;;;9.87;3.40;;;7.40;99.90;;;;;;4842059;29;20287;-56
2022/11/27 03:06:26;;;;;;;12.10;3.53;;;7.40;99.90;;;;;;4839820;29;20201;-56
2022/11/27 03:08:59;;;;;;;9.27;3.47;;;7.40;99.90;;;;;;4838302;29;20478;-56
2022/11/27 03:11:29;;;;;;;8.57;3.30;;;7.40;99.90;;;;;;4837922;29;20211;-56
2022/11/27 03:14:02;;;;;;;8.13;2.97;;;7.40;99.90;;;;;;4838587;29;20557;-56
2022/11/27 03:16:39;;;;;;;7.17;3.10;;;7.50;99.90;;;;;;4843378;29;20208;-56
2022/11/27 03:19:16;;;;;;;10.43;3.70;;;7.40;99.90;;;;;;4835887;29;20245;-56
2022/11/27 03:21:49;;;;;;;9.13;3.40;;;7.40;99.90;;;;;;4839619;29;20192;-56
2022/11/27 03:24:17;;;;;;;14.10;3.50;;;7.50;99.90;;;;;;4841952;29;20200;-56
2022/11/27 03:26:46;;;;;;;12.90;3.40;;;7.40;99.90;;;;;;4840578;29;20216;-56
2022/11/27 03:29:18;;;;;;;10.40;3.80;;;7.40;99.90;;;;;;4839439;29;20208;-56
2022/11/27 03:31:49;;;;;;;8.43;3.40;;;7.40;99.90;;;;;;4839732;29;20708;-56
2022/11/27 03:34:17;;;;;;;9.63;3.60;;;7.40;99.90;;;;;;4837236;29;20217;-56
2022/11/27 03:36:45;;;;;;;9.57;2.90;;;7.40;99.90;;;;;;4836190;29;20231;-55
2022/11/27 03:39:14;;;;;;;7.90;3.00;;;7.40;99.90;;;;;;4841072;29;21127;-56
2022/11/27 03:41:49;;;;;;;12.20;3.70;;;7.40;99.90;;;;;;4840507;29;20196;-56
2022/11/27 03:44:28;;;;;;;9.30;3.50;;;7.30;99.90;;;;;;4840657;29;20727;-55
2022/11/27 03:47:09;;;;;;;10.23;3.47;;;7.30;99.90;;;;;;4840346;29;20235;-56
2022/11/27 03:49:52;;;;;;;5.87;3.20;;;7.30;99.90;;;;;;4831476;29;20256;-57
2022/11/27 03:52:27;;;;;;;7.90;3.30;;;7.30;99.90;;;;;;4838370;29;20196;-56
2022/11/27 03:55:03;;;;;;;10.50;3.30;;;7.20;99.90;;;;;;4841465;29;20229;-56
2022/11/27 03:57:37;;;;;;;10.10;3.40;;;7.10;99.90;;;;;;4835802;29;20239;-55
2022/11/27 04:00:08;;;;;;;8.00;3.97;;;7.00;99.90;;;;;;4840921;29;20211;-56
2022/11/27 04:02:44;;;;;;;6.13;3.20;;;7.00;99.90;;;;;;4836821;29;20212;-56
2022/11/27 04:05:13;;;;;;;11.80;3.53;;;7.00;99.90;;;;;;4836883;29;20196;-57
2022/11/27 04:07:42;;;;;;;9.10;3.60;;;6.90;99.90;;;;;;4837335;29;20200;-56
2022/11/27 04:10:11;;;;;;;9.90;3.50;;;6.90;99.90;;;;;;4841667;29;20204;-56
2022/11/27 04:12:39;;;;;;;4.57;3.53;;;6.80;99.90;;;;;;4840302;29;20208;-56
2022/11/27 04:15:09;;;;;;;10.43;4.23;;;6.80;99.90;;;;;;4837621;29;20224;-56
2022/11/27 04:17:37;;;;;;;8.30;2.77;;;6.80;99.90;;;;;;4841117;29;20571;-56
2022/11/27 04:20:08;;;;;;;9.17;3.60;;;6.80;99.90;;;;;;4841543;29;20220;-56
2022/11/27 04:22:37;;;;;;;5.63;3.57;;;6.80;99.90;;;;;;4839623;29;20200;-56
2022/11/27 04:25:06;;;;;;;6.70;3.47;;;6.80;99.90;;;;;;4840368;29;20210;-57
2022/11/27 04:27:34;;;;;;;12.67;3.33;;;6.70;99.90;;;;;;4838921;29;20252;-55
2022/11/27 04:30:03;;;;;;;11.27;3.43;;;6.80;99.90;;;;;;4836654;29;20539;-56
2022/11/27 04:32:33;;;;;;;13.40;3.10;;;6.80;99.90;;;;;;4836781;29;20200;-57
2022/11/27 04:35:01;;;;;;;7.03;3.80;;;6.70;99.90;;;;;;4836884;29;20683;-56
2022/11/27 04:37:31;;;;;;;14.27;4.07;;;6.70;99.90;;;;;;4836077;29;20196;-56
2022/11/27 04:39:59;;;;;;;7.80;4.03;;;6.70;99.90;;;;;;4836468;29;20224;-56
2022/11/27 04:42:28;;;;;;;8.00;4.13;;;6.70;99.90;;;;;;4839305;29;20204;-56
2022/11/27 04:44:56;;;;;;;6.37;3.20;;;6.70;99.90;;;;;;4833766;29;20290;-56
2022/11/27 04:47:24;;;;;;;4.97;3.50;;;6.70;99.90;;;;;;4838951;29;20204;-57
2022/11/27 04:49:52;;;;;;;9.33;3.60;;;6.70;99.90;;;;;;4838352;29;20202;-57
2022/11/27 04:52:21;;;;;;;9.87;4.07;;;6.60;99.90;;;;;;4836944;29;20196;-56
2022/11/27 04:54:50;;;;;;;6.13;3.37;;;6.70;99.90;;;;;;4838573;29;20200;-57
2022/11/27 04:57:27;;;;;;;8.87;3.70;;;6.70;99.90;;;;;;4837513;29;20299;-56
2022/11/27 04:59:56;;;;;;;11.30;3.87;;;6.60;99.90;;;;;;4830229;29;20690;-57
2022/11/27 05:02:24;;;;;;;8.13;3.50;;;6.60;99.90;;;;;;4839762;29;20584;-57
2022/11/27 05:04:53;;;;;;;11.87;4.30;;;6.60;99.90;;;;;;4839247;29;20264;-56
2022/11/27 05:07:22;;;;;;;7.67;3.90;;;6.60;99.90;;;;;;4837504;29;20204;-57
2022/11/27 05:09:51;;;;;;;8.40;4.23;;;6.50;99.90;;;;;;4840654;29;20256;-57
2022/11/27 05:12:19;;;;;;;8.23;3.87;;;6.50;99.90;;;;;;4840418;29;20209;-56
2022/11/27 05:14:48;;;;;;;9.73;3.93;;;6.50;99.90;;;;;;4839896;29;20235;-57
2022/11/27 05:17:16;;;;;;;6.73;4.20;;;6.50;99.90;;;;;;4839538;29;20204;-57
2022/11/27 05:19:44;;;;;;;7.93;3.83;;;6.50;99.90;;;;;;4839219;29;20212;-56
2022/11/27 05:22:13;;;;;;;10.10;4.27;;;6.50;99.90;;;;;;4841122;29;20600;-56
2022/11/27 05:24:41;;;;;;;12.17;4.73;;;6.50;99.90;;;;;;4842970;29;20211;-56
2022/11/27 05:27:11;;;;;;;8.57;4.20;;;6.50;99.90;;;;;;4843067;29;20220;-56
2022/11/27 05:29:39;;;;;;;14.10;4.63;;;6.50;99.90;;;;;;4827899;29;20260;-56
2022/11/27 05:32:07;;;;;;;7.43;4.30;;;6.50;99.90;;;;;;4842391;29;20656;-56
2022/11/27 05:34:36;;;;;;;8.87;4.63;;;6.50;99.90;;;;;;4827161;29;20200;-57
2022/11/27 05:37:05;;;;;;;12.43;4.23;;;6.50;99.90;;;;;;4839927;29;20200;-55
2022/11/27 05:39:33;;;;;;;12.87;4.73;;;6.40;99.90;;;;;;4842689;29;20230;-57
2022/11/27 05:42:01;;;;;;;12.83;4.73;;;6.50;99.90;;;;;;4840016;29;20575;-57
2022/11/27 05:44:31;;;;;;;12.83;5.13;;;6.40;99.90;;;;;;4843155;29;20196;-57
2022/11/27 05:46:59;;;;;;;10.00;4.87;;;6.40;99.90;;;;;;4840697;29;20215;-57
2022/11/27 05:49:28;;;;;;;11.30;5.43;;;6.50;99.90;;;;;;4841450;29;20215;-57
2022/11/27 05:51:56;;;;;;;13.27;4.97;;;6.40;99.90;;;;;;4840412;29;20651;-57
2022/11/27 05:54:25;;;;;;;10.77;4.70;;;6.40;99.90;;;;;;4840814;29;20210;-57
2022/11/27 05:56:53;;;;;;;8.83;4.67;;;6.40;99.90;;;;;;4835789;29;20236;-57
2022/11/27 05:59:21;;;;;;;10.10;4.67;;;6.50;99.90;;;;;;4840537;29;20674;-58
2022/11/27 06:01:51;;;;;;;9.50;4.63;;;6.50;99.90;;;;;;4842183;29;20668;-57
2022/11/27 06:04:19;;;;;;;7.90;4.70;;;6.40;99.90;;;;;;4841996;29;20545;-56
2022/11/27 06:06:48;;;;;;;14.03;5.07;;;6.40;99.90;;;;;;4844620;29;20208;-57
2022/11/27 06:09:16;;;;;;;11.80;5.00;;;6.50;99.90;;;;;;4839421;29;20200;-57
2022/11/27 06:11:44;;;;;;;12.13;5.47;;;6.50;99.90;;;;;;4837960;29;20227;-56
2022/11/27 06:14:13;;;;;;;12.57;4.57;;;6.40;99.90;;;;;;4841859;29;20223;-57
2022/11/27 06:16:41;;;;;;;10.80;4.50;;;6.50;99.90;;;;;;4840540;29;20208;-56
2022/11/27 06:19:10;;;;;;;7.40;4.43;;;6.50;99.90;;;;;;4838156;29;20280;-57
2022/11/27 06:21:39;;;;;;;17.57;5.30;;;6.40;99.90;;;;;;4842868;29;20718;-57
2022/11/27 06:24:07;;;;;;;14.40;5.47;;;6.50;99.90;;;;;;4840206;29;20200;-56
2022/11/27 06:26:35;;;;;;;12.23;5.20;;;6.40;99.90;;;;;;4840135;29;20219;-57
2022/11/27 06:29:04;;;;;;;14.10;5.50;;;6.50;99.90;;;;;;4841143;29;20796;-56
2022/11/27 06:31:33;;;;;;;14.93;5.00;;;6.50;99.90;;;;;;4836425;29;20207;-57
2022/11/27 06:34:03;;;;;;;6.90;4.80;;;6.40;99.90;;;;;;4840163;29;20204;-57
2022/11/27 06:36:35;;;;;;;13.87;5.57;;;6.40;99.90;;;;;;4841245;29;20200;-56
2022/11/27 06:39:05;;;;;;;8.67;4.83;;;6.50;99.90;;;;;;4838739;29;20201;-56
2022/11/27 06:41:34;;;;;;;11.23;5.10;;;6.50;99.90;;;;;;4838899;29;20225;-55
2022/11/27 06:44:02;;;;;;;12.77;5.03;;;6.50;99.90;;;;;;4835188;29;20541;-56
2022/11/27 06:46:30;;;;;;;9.63;4.60;;;6.40;99.90;;;;;;4835821;29;20651;-57
2022/11/27 06:49:00;;;;;;;11.77;5.77;;;6.40;99.90;;;;;;4839606;29;20193;-57
2022/11/27 06:51:31;;;;;;;8.63;4.90;;;6.50;99.90;;;;;;4841857;29;20666;-57
2022/11/27 06:54:02;;;;;;;12.70;5.20;;;6.50;99.90;;;;;;4840568;29;20204;-57
2022/11/27 06:56:32;;;;;;;7.83;4.90;;;6.40;99.90;;;;;;4840551;29;20690;-57
2022/11/27 06:59:01;;;;;;;14.03;4.80;;;6.50;99.90;;;;;;4840861;29;20211;-57
2022/11/27 07:01:30;;;;;;;10.50;5.10;;;6.50;99.90;;;;;;4839914;29;20277;-57
2022/11/27 07:03:59;;;;;;;13.27;5.97;;;6.50;99.90;;;;;;4838251;29;20208;-57
2022/11/27 07:06:28;;;;;;;10.53;5.73;;;6.50;99.90;;;;;;4842518;29;20264;-57
2022/11/27 07:08:56;;;;;;;9.50;5.40;;;6.60;99.90;;;;;;4837182;29;20200;-57
2022/11/27 07:11:30;;;;;;;15.10;5.50;;;6.50;99.90;;;;;;4840773;29;20199;-57
2022/11/27 07:14:01;;;;;;;9.80;5.03;;;6.50;99.90;;;;;;4836962;29;20238;-57
2022/11/27 07:16:32;;;;;;;10.80;5.30;;;6.50;99.90;;;;;;4840913;29;20220;-57
2022/11/27 07:19:02;;;;;;;11.07;5.43;;;6.50;99.90;;;;;;4840305;29;20221;-56
2022/11/27 07:21:30;;;;;;;10.63;5.47;;;6.50;99.90;;;;;;4842249;29;20576;-57
2022/11/27 07:24:00;;;;;;;8.37;5.07;;;6.50;99.90;;;;;;4838207;29;20204;-57
2022/11/27 07:26:30;;;;;;;10.90;4.90;;;6.50;99.90;;;;;;4842819;29;20283;-57
2022/11/27 07:28:59;;;;;;;11.63;5.33;;;6.40;99.90;;;;;;4836364;29;20212;-57
2022/11/27 07:31:29;;;;;;;10.20;5.00;;;6.40;99.90;;;;;;4841344;29;20595;-57
2022/11/27 07:34:00;;;;;;;15.77;5.90;;;6.40;99.90;;;;;;4832592;29;20560;-57
2022/11/27 07:36:30;;;;;;;11.00;5.20;;;6.40;99.90;;;;;;4836964;29;20207;-57
2022/11/27 07:38:58;;;;;;;8.20;5.23;;;6.50;99.90;;;;;;4839269;29;20205;-57
2022/11/27 07:41:27;;;;;;;11.00;5.37;;;6.50;99.90;;;;;;4840992;29;20227;-57
2022/11/27 07:44:03;;;;;;;10.73;5.47;;;6.50;99.90;;;;;;4841603;29;20192;-58
2022/11/27 07:46:31;;;;;;;9.03;5.23;;;6.40;99.90;;;;;;4839412;29;20210;-57
2022/11/27 07:49:00;;;;;;;8.83;5.50;;;6.50;99.90;;;;;;4841892;29;20567;-57
2022/11/27 07:51:29;;;;;;;10.77;5.50;;;6.40;99.90;;;;;;4840216;29;20192;-57
2022/11/27 07:53:59;;;;;;;8.80;5.60;;;6.50;99.90;;;;;;4840555;29;20204;-57
2022/11/27 07:56:27;;;;;;;14.30;6.30;;;6.50;99.90;;;;;;4840714;29;20244;-57
2022/11/27 07:58:56;;;;;;;7.43;5.37;;;6.50;99.90;;;;;;4841581;29;20207;-57
2022/11/27 08:01:26;;;;;;;9.97;6.17;;;6.50;99.90;;;;;;4839314;29;20561;-57
2022/11/27 08:03:57;;;;;;;13.23;5.60;;;6.50;99.90;;;;;;4839470;29;20204;-57
2022/11/27 08:06:26;;;;;;;10.67;5.90;;;6.50;99.90;;;;;;4840659;29;20204;-57
2022/11/27 08:08:55;;;;;;;10.00;5.80;;;6.40;99.90;;;;;;4833175;29;20200;-56
2022/11/27 08:11:25;;;;;;;7.97;5.10;;;6.50;99.90;;;;;;4837288;29;20215;-58
2022/11/27 08:13:57;;;;;;;11.50;6.30;;;6.40;99.90;;;;;;4832313;29;20228;-57
2022/11/27 08:16:27;;;;;;;14.60;5.67;;;6.50;99.90;;;;;;4835935;29;20196;-57
2022/11/27 08:18:55;;;;;;;12.40;5.73;;;6.50;99.90;;;;;;4839244;29;20236;-57
2022/11/27 08:21:24;;;;;;;6.93;5.63;;;6.50;99.90;;;;;;4838358;29;20192;-57
2022/11/27 08:23:53;;;;;;;15.10;5.77;;;6.50;99.90;;;;;;4838268;29;20216;-58
2022/11/27 08:26:22;;;;;;;10.53;5.80;;;6.50;99.90;;;;;;4838017;29;20203;-58
2022/11/27 08:28:52;;;;;;;13.50;6.23;;;6.50;99.90;;;;;;4836532;29;20195;-57
2022/11/27 08:31:21;;;;;;;12.53;6.50;;;6.50;99.90;;;;;;4838657;29;20207;-57
2022/11/27 08:33:51;;;;;;;15.87;6.90;;;6.50;99.90;;;;;;4836937;29;20212;-57
2022/11/27 08:36:19;;;;;;;12.40;6.10;;;6.50;99.90;;;;;;4839348;29;20196;-58
2022/11/27 08:38:47;;;;;;;12.73;6.03;;;6.50;99.90;;;;;;4839740;29;20208;-57
2022/11/27 08:41:16;;;;;;;9.47;6.40;;;6.50;99.90;;;;;;4833380;29;20204;-57
2022/11/27 08:43:44;;;;;;;11.93;6.43;;;6.50;99.90;;;;;;4837027;29;20212;-57
2022/11/27 08:46:12;;;;;;;10.97;6.03;;;6.50;99.90;;;;;;4831908;29;20237;-57
2022/11/27 08:48:41;;;;;;;13.90;7.03;;;6.50;99.90;;;;;;4836034;29;20659;-57
2022/11/27 08:51:15;;;;;;;14.90;7.00;;;6.50;99.90;;;;;;4835483;29;20215;-57
2022/11/27 08:53:44;;;;;;;13.70;7.80;;;6.50;99.90;;;;;;4829275;29;20333;-57
2022/11/27 08:56:15;;;;;;;23.93;11.70;;;6.60;99.90;;;;;;4831746;29;20232;-57
2022/11/27 08:58:44;;;;;;;15.97;10.47;;;6.60;99.90;;;;;;4837313;29;20204;-57
2022/11/27 09:01:15;;;;;;;29.87;19.37;;;6.60;99.90;;;;;;4834483;29;20203;-57
2022/11/27 09:03:44;;;;;;;14.10;9.67;;;6.60;99.90;;;;;;4848600;29;20337;-57
2022/11/27 09:06:16;;;;;;;12.03;6.43;;;6.60;99.90;;;;;;4838397;29;20282;-57
2022/11/27 09:08:45;;;;;;;10.97;6.63;;;6.60;99.90;;;;;;4836578;29;20659;-57
2022/11/27 09:11:15;;;;;;;15.20;10.10;;;6.60;99.90;;;;;;4839529;29;20200;-57
2022/11/27 09:13:44;;;;;;;24.57;12.57;;;6.60;99.90;;;;;;4843018;29;20220;-57
2022/11/27 09:16:15;;;;;;;11.97;7.13;;;6.60;99.90;;;;;;4841383;29;20216;-57
2022/11/27 09:18:44;;;;;;;19.03;8.17;;;6.60;99.90;;;;;;4843070;29;20211;-57
2022/11/27 09:21:15;;;;;;;20.30;10.33;;;6.60;99.90;;;;;;4840942;29;20204;-57
2022/11/27 09:23:44;;;;;;;13.47;6.57;;;6.60;99.90;;;;;;4834798;29;20235;-57
2022/11/27 09:26:14;;;;;;;12.80;6.70;;;6.60;99.90;;;;;;4854998;29;20204;-57
2022/11/27 09:28:43;;;;;;;12.77;6.40;;;6.70;99.90;;;;;;4839554;29;20211;-57
2022/11/27 09:31:15;;;;;;;11.17;7.27;;;6.70;99.90;;;;;;4839785;29;20199;-57
2022/11/27 09:33:43;;;;;;;30.53;18.50;;;6.70;99.90;;;;;;4838080;29;20188;-57
2022/11/27 09:36:15;;;;;;;16.17;8.40;;;6.70;99.90;;;;;;4841258;29;20921;-56
2022/11/27 09:38:44;;;;;;;19.63;10.93;;;6.70;99.90;;;;;;4837987;29;20214;-56
2022/11/27 09:41:45;;;;;;;12.60;7.73;;;6.70;99.90;;;;;;4842523;29;20204;-56
2022/11/27 09:44:27;;;;;;;27.40;16.80;;;6.70;99.90;;;;;;4841105;29;20680;-56
2022/11/27 09:46:59;;;;;;;27.60;16.83;;;6.70;99.90;;;;;;4840244;29;20200;-56
2022/11/27 09:49:35;;;;;;;19.87;10.33;;;6.70;99.90;;;;;;4839108;29;20278;-56
2022/11/27 09:52:10;;;;;;;78.37;37.60;;;6.70;99.90;;;;;;4841445;29;20204;-57
2022/11/27 09:54:43;;;;;;;15.50;9.13;;;6.70;99.90;;;;;;4840830;29;20242;-57
2022/11/27 09:57:25;;;;;;;45.10;24.63;;;6.80;99.90;;;;;;4838660;29;20254;-57
2022/11/27 09:59:54;;;;;;;10.27;7.07;;;6.70;99.90;;;;;;4840907;29;20210;-57
2022/11/27 10:02:28;;;;;;;13.87;7.70;;;6.80;99.90;;;;;;4839182;29;20235;-56
2022/11/27 10:04:58;;;;;;;17.60;7.33;;;6.80;99.90;;;;;;4842058;29;20751;-57
2022/11/27 10:07:58;;;;;;;12.80;6.50;;;6.80;99.90;;;;;;4837816;29;20625;-57
2022/11/27 10:10:45;;;;;;;11.43;7.70;;;6.80;99.90;;;;;;4834432;29;20223;-57
2022/11/27 10:13:41;;;;;;;13.33;7.43;;;6.80;99.90;;;;;;4839271;29;20238;-57
2022/11/27 10:16:19;;;;;;;16.00;7.67;;;6.80;99.90;;;;;;4837172;29;20212;-57
2022/11/27 10:18:52;;;;;;;18.30;7.33;;;6.80;99.90;;;;;;4839131;29;20210;-56
2022/11/27 10:21:28;;;;;;;14.17;6.97;;;6.80;99.90;;;;;;4835768;29;20559;-57
2022/11/27 10:24:05;;;;;;;13.30;7.43;;;6.90;99.90;;;;;;4838673;29;20307;-57
2022/11/27 10:26:38;;;;;;;12.83;7.30;;;6.90;99.90;;;;;;4836497;29;20208;-57
2022/11/27 10:29:17;;;;;;;14.03;7.87;;;7.00;99.90;;;;;;4837075;29;20200;-57
2022/11/27 10:31:49;;;;;;;12.73;7.97;;;7.00;99.90;;;;;;4840379;29;20706;-57
2022/11/27 10:34:26;;;;;;;12.07;7.30;;;6.90;99.90;;;;;;4841021;29;20212;-57
2022/11/27 10:36:56;;;;;;;14.70;7.17;;;6.90;99.90;;;;;;4837860;29;20196;-57
2022/11/27 10:39:35;;;;;;;12.40;7.37;;;6.90;99.90;;;;;;4843195;29;20192;-56
2022/11/27 10:42:09;;;;;;;16.87;7.30;;;6.90;99.90;;;;;;4841399;29;20212;-56
2022/11/27 10:44:41;;;;;;;16.53;7.80;;;6.90;99.90;;;;;;4841636;29;20386;-57
2022/11/27 10:47:13;;;;;;;14.70;8.50;;;6.90;99.90;;;;;;4836153;29;20212;-57
2022/11/27 10:49:42;;;;;;;15.67;7.93;;;7.00;99.90;;;;;;4840178;29;20196;-57
2022/11/27 10:52:16;;;;;;;11.77;6.83;;;7.00;99.90;;;;;;4835049;29;20726;-57
2022/11/27 10:54:52;;;;;;;14.30;7.77;;;7.10;99.90;;;;;;4831249;29;20204;-57
2022/11/27 10:57:40;;;;;;;13.50;7.77;;;7.00;99.90;;;;;;4836025;29;20236;-57
2022/11/27 11:00:13;;;;;;;15.73;7.47;;;7.00;99.90;;;;;;4832003;29;20220;-57
2022/11/27 11:03:19;;;;;;;15.90;8.00;;;7.00;99.90;;;;;;4838437;29;20279;-56
2022/11/27 11:05:58;;;;;;;12.63;7.17;;;7.00;99.90;;;;;;4836625;29;20540;-57
2022/11/27 11:08:47;;;;;;;15.30;7.47;;;7.00;99.90;;;;;;4833147;29;20204;-57
2022/11/27 11:11:26;;;;;;;17.00;7.30;;;7.10;99.90;;;;;;4831787;29;20208;-57
2022/11/27 11:13:54;;;;;;;11.23;7.03;;;7.10;99.90;;;;;;4831780;29;20591;-57
2022/11/27 11:16:26;;;;;;;12.07;6.90;;;7.10;99.90;;;;;;4831273;29;20216;-57
2022/11/27 11:19:02;;;;;;;13.73;7.23;;;7.20;99.90;;;;;;4833722;29;20207;-57
2022/11/27 11:21:32;;;;;;;11.50;7.70;;;7.20;99.90;;;;;;4829803;29;20204;-56
2022/11/27 11:24:02;;;;;;;14.87;7.33;;;7.30;99.90;;;;;;4836145;29;20251;-57
2022/11/27 11:26:34;;;;;;;16.00;6.80;;;7.20;99.90;;;;;;4833566;29;20287;-56
2022/11/27 11:29:05;;;;;;;13.33;7.60;;;7.20;99.90;;;;;;4833406;29;20205;-57
2022/11/27 11:31:36;;;;;;;12.63;6.97;;;7.30;99.90;;;;;;4830285;29;20635;-57
2022/11/27 11:34:13;;;;;;;9.33;7.03;;;7.20;99.90;;;;;;4836115;29;20204;-56
2022/11/27 11:36:42;;;;;;;14.93;6.93;;;7.30;99.90;;;;;;4836219;29;20211;-56
2022/11/27 11:39:22;;;;;;;14.00;7.10;;;7.30;99.90;;;;;;4838671;29;20204;-57
2022/11/27 11:41:52;;;;;;;11.70;7.03;;;7.30;99.90;;;;;;4833733;29;20207;-57
2022/11/27 11:44:24;;;;;;;13.73;7.50;;;7.30;99.90;;;;;;4835033;29;20227;-56
2022/11/27 11:46:53;;;;;;;9.63;6.90;;;7.30;99.90;;;;;;4836699;29;20220;-56
2022/11/27 11:49:25;;;;;;;12.60;7.40;;;7.40;99.90;;;;;;4832026;29;20204;-56
2022/11/27 11:52:20;;;;;;;14.97;7.77;;;7.40;99.90;;;;;;4833007;29;20205;-56
2022/11/27 11:54:58;;;;;;;12.57;7.00;;;7.50;99.90;;;;;;4829453;29;20211;-55
2022/11/27 11:58:09;;;;;;;11.70;6.63;;;7.50;99.90;;;;;;4831703;29;20246;-57
2022/11/27 12:00:45;;;;;;;11.03;7.53;;;7.50;99.90;;;;;;4801993;29;20227;-56
2022/11/27 12:03:40;;;;;;;10.40;6.80;;;7.60;99.90;;;;;;4840480;29;20307;-56
2022/11/27 12:06:39;;;;;;;8.20;6.50;;;7.50;99.90;;;;;;4837305;29;20207;-58
2022/11/27 12:09:19;;;;;;;14.40;6.43;;;7.50;99.90;;;;;;4834469;29;20196;-56
2022/11/27 12:11:54;;;;;;;12.73;5.73;;;7.60;99.90;;;;;;4834460;29;20564;-56
2022/11/27 12:14:39;;;;;;;6.17;5.53;;;7.60;99.90;;;;;;4829760;29;20223;-56
2022/11/27 12:17:20;;;;;;;12.67;8.20;;;7.60;99.90;;;;;;4829102;29;20212;-57
2022/11/27 12:20:10;;;;;;;9.40;7.07;;;7.70;99.90;;;;;;4833762;29;20215;-57
2022/11/27 12:23:18;;;;;;;10.30;5.90;;;7.70;99.90;;;;;;4832667;29;20206;-57
2022/11/27 12:25:54;;;;;;;9.33;6.23;;;7.70;99.90;;;;;;4833100;29;20204;-57
2022/11/27 12:28:41;;;;;;;8.20;5.70;;;7.80;99.90;;;;;;4834572;29;20204;-57
2022/11/27 12:31:23;;;;;;;11.10;6.37;;;7.80;99.90;;;;;;4833724;29;20215;-57
2022/11/27 12:34:01;;;;;;;11.20;6.30;;;7.70;99.90;;;;;;4837712;29;20212;-56
2022/11/27 12:36:49;;;;;;;8.20;5.80;;;7.70;99.90;;;;;;4833787;29;20196;-56
2022/11/27 12:39:24;;;;;;;11.27;6.17;;;7.70;99.90;;;;;;4838814;29;20200;-57
2022/11/27 12:42:14;;;;;;;10.17;6.33;;;7.80;99.90;;;;;;4836733;29;20200;-56
2022/11/27 12:44:56;;;;;;;9.27;6.07;;;7.80;99.90;;;;;;4835672;29;20268;-57
2022/11/27 12:47:32;;;;;;;11.70;6.10;;;7.70;99.90;;;;;;4839436;29;20196;-56
2022/11/27 12:50:18;;;;;;;9.80;6.50;;;7.70;99.90;;;;;;4836787;29;20230;-56
2022/11/27 12:52:54;;;;;;;9.87;6.37;;;7.70;99.90;;;;;;4839868;29;20219;-56
2022/11/27 12:55:27;;;;;;;9.67;5.80;;;7.70;99.90;;;;;;4838907;29;20192;-56
2022/11/27 12:58:02;;;;;;;10.43;6.63;;;7.80;99.90;;;;;;4833836;29;20236;-57
2022/11/27 13:00:32;;;;;;;11.17;5.63;;;7.80;99.90;;;;;;4836670;29;20199;-56
2022/11/27 13:03:06;;;;;;;7.50;5.70;;;7.80;99.90;;;;;;4839039;29;20207;-56
2022/11/27 13:05:41;;;;;;;8.63;5.47;;;7.90;99.90;;;;;;4832182;29;20227;-56
2022/11/27 13:08:15;;;;;;;9.57;5.30;;;7.90;99.90;;;;;;4841514;29;20481;-57
2022/11/27 13:10:55;;;;;;;13.87;7.00;;;7.90;99.90;;;;;;4831473;29;20974;-57
2022/11/27 13:13:30;;;;;;;7.30;5.70;;;8.00;99.90;;;;;;4830823;29;20208;-57
2022/11/27 13:16:07;;;;;;;8.70;6.07;;;8.00;99.90;;;;;;4831702;29;20200;-56
2022/11/27 13:18:40;;;;;;;10.90;5.47;;;8.00;99.90;;;;;;4829798;29;20240;-57